Flight Track Log - Related Links

Times and Time Zones

All times are in EDT time to prevent confusion due to time zone crossing. See the FDX120 flight status page for this flight to view local times or setup timezone preferences in your user account.

Time Position Orientation Groundspeed Altitude Reporting Facility
EDT Latitude Longitude Course Direction KTS MPH feet Rate Location/Type
Fri 05:38:58 AM 35.0167 -89.9833 180° South 179 206 1,200  Level KMEM
Fri 05:39:28 AM 34.9833 -89.9833 180° South 184 212 2,300 2,357 Climbing KMEM
Fri 05:40:22 AM 34.9500 -90.0167 219° Southwest 197 227 4,500 1,895 Climbing KMEM
Fri 05:41:22 AM 34.9500 -90.0833 270° West 250 288 5,900 2,141 Climbing KMEM
Fri 05:46:46 AM 35.2850 -90.5350 270° West 407 468 18,200 2,265 Climbing FlightAware
Fri 05:47:17 AM 35.3310 -90.5790 322° Northwest 413 475 19,300 930 Climbing FlightAware
Fri 05:47:57 AM 35.3820 -90.6280 322° Northwest 413 475 19,300  Level FlightAware
Fri 05:48:34 AM 35.4300 -90.6740 322° Northwest 413 475 19,300  Level FlightAware
Fri 05:49:11 AM 35.4770 -90.7190 322° Northwest 413 475 19,300  Level FlightAware
Fri 05:49:47 AM 35.5230 -90.7630 322° Northwest 413 475 19,300 4,629 Level FlightAware
Fri 05:50:21 AM 35.6210 -90.8550 323° Northwest 443 510 24,700 4,159 Climbing FlightAware
Fri 05:51:15 AM 35.7030 -90.9340 322° Northwest 444 511 25,400 467 Climbing FlightAware
Fri 05:51:51 AM 35.7520 -90.9830 321° Northwest 444 511 25,400 2,118 Level FlightAware
Fri 05:52:23 AM 35.8210 -91.0460 323° Northwest 446 513 27,800 2,368 Climbing FlightAware
Fri 05:53:07 AM 35.8870 -91.1110 321° Northwest 443 510 28,400 444 Climbing FlightAware
Fri 05:53:44 AM 35.9370 -91.1610 321° Northwest 443 510 28,400  Level FlightAware
Fri 05:54:20 AM 35.9860 -91.2100 321° Northwest 443 510 28,400 3,086 Level FlightAware
Fri 05:54:54 AM 36.0640 -91.2820 323° Northwest 425 489 32,000 3,130 Climbing FlightAware
Fri 05:55:29 AM 36.1180 -91.3340 322° Northwest 432 497 32,000  Level FlightAware
Fri 05:56:01 AM 36.1670 -91.3810 322° Northwest 432 497 32,000  Level FlightAware
Fri 05:56:38 AM 36.2270 -91.4410 321° Northwest 430 495 32,000  Level FlightAware
Fri 05:57:12 AM 36.2790 -91.4910 322° Northwest 427 491 32,000  Level FlightAware
Fri 05:57:49 AM 36.3360 -91.5480 321° Northwest 426 490 32,000  Level FlightAware
Fri 05:58:39 AM 36.4050 -91.6170 321° Northwest 429 494 32,000  Level FlightAware
Fri 05:59:09 AM 36.4610 -91.6700 323° Northwest 429 494 32,000  Level FlightAware
Fri 05:59:48 AM 36.5200 -91.7290 321° Northwest 428 493 32,000  Level FlightAware
Fri 06:00:23 AM 36.5760 -91.7840 322° Northwest 426 490 32,000  Level FlightAware
Fri 06:00:57 AM 36.6280 -91.8360 321° Northwest 428 493 32,000  Level FlightAware
Fri 06:01:33 AM 36.6850 -91.8910 322° Northwest 429 494 32,000  Level FlightAware
Fri 06:02:09 AM 36.7400 -91.9470 321° Northwest 431 496 32,000  Level FlightAware
Fri 06:02:41 AM 36.7910 -91.9960 322° Northwest 431 496 32,000  Level FlightAware
Fri 06:03:17 AM 36.8460 -92.0520 321° Northwest 430 495 32,000  Level FlightAware
Fri 06:03:53 AM 36.9030 -92.1090 321° Northwest 427 491 32,000  Level FlightAware
Fri 06:04:29 AM 36.9590 -92.1650 321° Northwest 425 489 32,000  Level FlightAware
Fri 06:05:01 AM 37.0080 -92.2130 322° Northwest 424 488 32,000  Level FlightAware
Fri 06:05:37 AM 37.0630 -92.2680 321° Northwest 427 491 32,000  Level FlightAware
Fri 06:06:13 AM 37.1180 -92.3240 321° Northwest 429 494 32,000  Level FlightAware
Fri 06:06:49 AM 37.1740 -92.3800 321° Northwest 426 490 32,000  Level FlightAware
Fri 06:07:21 AM 37.2220 -92.4300 320° Northwest 423 487 32,000  Level FlightAware
Fri 06:07:57 AM 37.2780 -92.4850 322° Northwest 423 487 32,000  Level FlightAware
Fri 06:08:33 AM 37.3330 -92.5410 321° Northwest 423 487 32,000  Level FlightAware
Fri 06:09:09 AM 37.3880 -92.5970 321° Northwest 424 488 32,000  Level FlightAware
Fri 06:09:41 AM 37.4370 -92.6480 320° Northwest 424 488 32,000  Level FlightAware
Fri 06:10:19 AM 37.4950 -92.7050 322° Northwest 422 486 32,000  Level FlightAware
Fri 06:10:55 AM 37.5490 -92.7610 321° Northwest 420 483 32,000  Level FlightAware
Fri 06:11:29 AM 37.6000 -92.8140 321° Northwest 417 480 32,000  Level FlightAware
Fri 06:12:02 AM 37.6430 -92.8580 321° Northwest 417 480 32,000  Level FlightAware
Fri 06:12:37 AM 37.7020 -92.9180 321° Northwest 417 480 32,000  Level FlightAware
Fri 06:13:14 AM 37.7530 -92.9710 321° Northwest 418 481 32,000  Level FlightAware
Fri 06:13:49 AM 37.8090 -93.0280 321° Northwest 419 482 32,000  Level FlightAware
Fri 06:14:22 AM 37.8590 -93.0810 320° Northwest 418 481 32,000  Level FlightAware
Fri 06:14:57 AM 37.9120 -93.1350 321° Northwest 419 482 32,000  Level FlightAware
Fri 06:15:33 AM 37.9670 -93.1910 321° Northwest 422 486 32,000  Level FlightAware
Fri 06:16:05 AM 38.0160 -93.2430 320° Northwest 422 486 32,000  Level FlightAware
Fri 06:16:41 AM 38.0660 -93.2950 321° Northwest 423 487 32,000  Level FlightAware
Fri 06:17:19 AM 38.1260 -93.3570 321° Northwest 426 490 32,000  Level FlightAware
Fri 06:17:53 AM 38.1790 -93.4130 320° Northwest 429 494 32,000  Level FlightAware
Fri 06:18:28 AM 38.2310 -93.4660 321° Northwest 432 497 32,000  Level FlightAware
Fri 06:19:00 AM 38.2800 -93.5180 320° Northwest 437 503 32,000  Level FlightAware
Fri 06:19:37 AM 38.3410 -93.5820 321° Northwest 438 504 32,000  Level FlightAware
Fri 06:20:15 AM 38.4000 -93.6440 321° Northwest 434 499 32,000  Level FlightAware
Fri 06:20:54 AM 38.4620 -93.7090 321° Northwest 434 499 32,000  Level FlightAware
Fri 06:21:29 AM 38.5160 -93.7650 321° Northwest 435 501 32,000  Level FlightAware
Fri 06:22:05 AM 38.5700 -93.8230 320° Northwest 435 501 32,000  Level FlightAware
Fri 06:22:40 AM 38.6250 -93.8820 320° Northwest 435 501 32,000  Level FlightAware
Fri 06:23:13 AM 38.6760 -93.9370 320° Northwest 435 501 32,000  Level FlightAware
Fri 06:23:50 AM 38.7330 -93.9980 320° Northwest 432 497 32,000  Level FlightAware
Fri 06:24:26 AM 38.7900 -94.0570 321° Northwest 430 495 32,000  Level FlightAware
Fri 06:24:58 AM 38.8390 -94.1090 320° Northwest 429 494 32,000  Level FlightAware
Fri 06:25:13 AM 38.8614 -94.1334 320° Northwest 429 494 32,000  Level FlightAware
Fri 06:26:00 AM 38.8916 -94.1662 320° Northwest 430 495 32,000  Level FlightAware
Fri 06:26:31 AM 38.9811 -94.2631 320° Northwest 430 495 32,000  Level FlightAware
Fri 06:27:00 AM 38.9999 -94.2828 321° Northwest 431 496 32,000  Level FlightAware
Fri 06:27:59 AM 39.0891 -94.3800 320° Northwest 430 495 32,000  Level FlightAware
Fri 06:28:31 AM 39.1630 -94.4590 320° Northwest 430 495 32,000  Level FlightAware
Fri 06:28:58 AM 39.1689 -94.4659 318° Northwest 430 495 32,000  Level FlightAware
Fri 06:29:28 AM 39.2500 -94.5533 320° Northwest 430 495 32,000  Level FlightAware
Fri 06:30:00 AM 39.2620 -94.5666 319° Northwest 431 496 32,000  Level FlightAware
Fri 06:30:50 AM 39.3740 -94.6880 320° Northwest 432 497 32,000  Level FlightAware
Fri 06:31:05 AM 39.3112 -94.6199 140° Southeast 433 498 32,000  Level FlightAware
Fri 06:32:00 AM 39.4820 -94.8070 320° Northwest 432 497 32,000  Level FlightAware
Fri 06:32:35 AM 39.5350 -94.8660 319° Northwest 429 494 32,000  Level FlightAware
Fri 06:33:07 AM 39.5830 -94.9190 320° Northwest 427 491 32,000  Level FlightAware
Fri 06:33:42 AM 39.6360 -94.9770 320° Northwest 427 491 32,000  Level FlightAware
Fri 06:34:10 AM 39.6785 -95.0234 320° Northwest 426 490 32,000  Level FlightAware
Fri 06:34:56 AM 39.7460 -95.1000 319° Northwest 424 488 32,000  Level FlightAware
Fri 06:35:30 AM 39.7980 -95.1560 320° Northwest 425 489 32,000  Level FlightAware
Fri 06:36:03 AM 39.8470 -95.2110 319° Northwest 426 490 32,000  Level FlightAware
Fri 06:36:40 AM 39.9020 -95.2730 319° Northwest 426 490 32,000  Level FlightAware
Fri 06:37:17 AM 39.9550 -95.3320 320° Northwest 423 487 32,000  Level FlightAware
Fri 06:37:49 AM 40.0040 -95.3870 319° Northwest 422 486 32,000  Level FlightAware
Fri 06:38:24 AM 40.0580 -95.4470 320° Northwest 426 490 32,000  Level FlightAware
Fri 06:39:01 AM 40.1130 -95.5090 319° Northwest 425 489 32,000  Level FlightAware
Fri 06:39:36 AM 40.1650 -95.5670 320° Northwest 421 484 32,000  Level FlightAware
Fri 06:40:09 AM 40.2130 -95.6220 319° Northwest 422 486 32,000  Level FlightAware
Fri 06:40:45 AM 40.2680 -95.6830 320° Northwest 424 488 32,000  Level FlightAware
Fri 06:41:21 AM 40.3200 -95.7420 319° Northwest 428 493 32,000  Level FlightAware
Fri 06:41:56 AM 40.3740 -95.8030 319° Northwest 425 489 32,000  Level FlightAware
Fri 06:42:29 AM 40.4210 -95.8570 319° Northwest 420 483 32,000  Level FlightAware
Fri 06:43:06 AM 40.4740 -95.9180 319° Northwest 416 479 32,000  Level FlightAware
Fri 06:43:41 AM 40.5240 -95.9750 319° Northwest 416 479 32,000  Level FlightAware
Fri 06:44:15 AM 40.5760 -96.0350 319° Northwest 415 478 32,000  Level FlightAware
Fri 06:44:50 AM 40.6270 -96.0940 319° Northwest 420 483 32,000  Level FlightAware
Fri 06:45:26 AM 40.6800 -96.1560 318° Northwest 418 481 32,000  Level FlightAware
Fri 06:45:57 AM 40.7250 -96.2060 320° Northwest 413 475 32,000  Level FlightAware
Fri 06:46:33 AM 40.7770 -96.2660 319° Northwest 413 475 32,000  Level FlightAware
Fri 06:47:11 AM 40.8310 -96.3300 318° Northwest 417 480 32,000  Level FlightAware
Fri 06:47:43 AM 40.8780 -96.3840 319° Northwest 418 481 32,000  Level FlightAware
Fri 06:48:22 AM 40.9340 -96.4490 319° Northwest 415 478 32,000  Level FlightAware
Fri 06:48:54 AM 40.9810 -96.5030 319° Northwest 413 475 32,000  Level FlightAware
Fri 06:49:29 AM 41.0310 -96.5620 318° Northwest 415 478 32,000  Level FlightAware
Fri 06:50:06 AM 41.0840 -96.6240 319° Northwest 415 478 32,000  Level FlightAware
Fri 06:50:41 AM 41.1340 -96.6830 318° Northwest 412 474 32,000  Level FlightAware
Fri 06:51:14 AM 41.1800 -96.7370 319° Northwest 410 472 32,000  Level FlightAware
Fri 06:51:51 AM 41.2330 -96.8010 318° Northwest 411 473 32,000  Level FlightAware
Fri 06:52:27 AM 41.2850 -96.8610 319° Northwest 414 476 32,000 353 Level FlightAware
Fri 06:52:59 AM 41.3310 -96.9150 319° Northwest 415 478 32,400 985 Climbing FlightAware
Fri 06:53:34 AM 41.3810 -96.9750 318° Northwest 417 480 33,100 1,167 Climbing FlightAware
Fri 06:54:11 AM 41.4340 -97.0380 318° Northwest 414 476 33,800 794 Climbing FlightAware
Fri 06:54:42 AM 41.4790 -97.0910 319° Northwest 418 481 34,000 174 Climbing FlightAware
Fri 06:55:20 AM 41.5310 -97.1530 318° Northwest 418 481 34,000  Level FlightAware
Fri 06:55:55 AM 41.5840 -97.2170 318° Northwest 418 481 34,000  Level FlightAware
Fri 06:56:31 AM 41.6360 -97.2790 318° Northwest 418 481 34,000  Level FlightAware
Fri 06:57:04 AM 41.6840 -97.3360 318° Northwest 417 480 34,000  Level FlightAware
Fri 06:57:39 AM 41.7320 -97.3940 318° Northwest 411 473 34,000  Level FlightAware
Fri 06:58:13 AM 41.7790 -97.4520 317° Northwest 413 475 34,000  Level FlightAware
Fri 06:58:51 AM 41.8360 -97.5220 318° Northwest 419 482 34,000 81 Level FlightAware
Fri 06:59:27 AM 41.8870 -97.5830 318° Northwest 424 488 34,100  Climbing FlightAware
Fri 07:00:01 AM 41.9370 -97.6430 318° Northwest 424 488 34,000 -88 Descending FlightAware
Fri 07:00:35 AM 41.9870 -97.7030 318° Northwest 424 488 34,000  Level FlightAware
Fri 07:01:09 AM 42.0360 -97.7640 317° Northwest 428 493 34,000  Level FlightAware
Fri 07:01:45 AM 42.0890 -97.8290 318° Northwest 428 493 34,000  Level FlightAware
Fri 07:02:22 AM 42.1380 -97.8900 317° Northwest 432 497 34,000  Level FlightAware
Fri 07:02:54 AM 42.1910 -97.9540 318° Northwest 437 503 34,000  Level FlightAware
Fri 07:03:29 AM 42.2430 -98.0190 317° Northwest 436 502 34,000  Level FlightAware
Fri 07:04:06 AM 42.2980 -98.0860 318° Northwest 427 491 34,000  Level FlightAware
Fri 07:04:40 AM 42.3470 -98.1470 317° Northwest 423 487 34,000  Level FlightAware
Fri 07:05:13 AM 42.3940 -98.2060 317° Northwest 424 488 34,000  Level FlightAware
Fri 07:05:49 AM 42.4470 -98.2730 317° Northwest 428 493 34,000  Level FlightAware
Fri 07:06:27 AM 42.5020 -98.3400 318° Northwest 428 493 34,000  Level FlightAware
Fri 07:06:59 AM 42.5490 -98.3990 317° Northwest 426 490 34,000  Level FlightAware
Fri 07:07:34 AM 42.5980 -98.4600 318° Northwest 423 487 34,000  Level FlightAware
Fri 07:08:11 AM 42.6520 -98.5270 318° Northwest 423 487 34,000  Level FlightAware
Fri 07:08:47 AM 42.7050 -98.5950 317° Northwest 433 498 34,000  Level FlightAware
Fri 07:09:18 AM 42.7500 -98.6520 317° Northwest 433 498 34,000  Level FlightAware
Fri 07:09:55 AM 42.8040 -98.7210 317° Northwest 428 493 34,000  Level FlightAware
Fri 07:10:30 AM 42.8550 -98.7850 317° Northwest 429 494 34,000  Level FlightAware
Fri 07:11:06 AM 42.9080 -98.8520 317° Northwest 438 504 34,000  Level FlightAware
Fri 07:11:39 AM 42.9560 -98.9120 318° Northwest 440 506 34,000  Level FlightAware
Fri 07:12:16 AM 43.0080 -98.9780 317° Northwest 433 498 34,000  Level FlightAware
Fri 07:12:48 AM 43.0600 -99.0430 318° Northwest 432 497 34,000  Level FlightAware
Fri 07:13:25 AM 43.1130 -99.1130 316° Northwest 438 504 34,000  Level FlightAware
Fri 07:14:06 AM 43.1670 -99.1840 316° Northwest 439 505 34,000  Level FlightAware
Fri 07:14:40 AM 43.2260 -99.2590 317° Northwest 440 506 34,000  Level FlightAware
Fri 07:15:18 AM 43.2810 -99.3290 317° Northwest 439 505 34,000  Level FlightAware
Fri 07:15:51 AM 43.3290 -99.3930 316° Northwest 440 506 34,000  Level FlightAware
Fri 07:16:27 AM 43.3830 -99.4620 317° Northwest 440 506 34,000  Level FlightAware
Fri 07:17:08 AM 43.4350 -99.5300 316° Northwest 441 507 34,000  Level FlightAware
Fri 07:17:52 AM 43.5070 -99.6240 317° Northwest 441 507 34,000  Level FlightAware
Fri 07:18:28 AM 43.5620 -99.6960 317° Northwest 440 506 34,000  Level FlightAware
Fri 07:18:58 AM 43.6070 -99.7560 316° Northwest 442 509 34,000  Level FlightAware
Fri 07:19:36 AM 43.6620 -99.8290 316° Northwest 444 511 34,000  Level FlightAware
Fri 07:20:12 AM 43.7170 -99.8990 317° Northwest 444 511 34,000  Level FlightAware
Fri 07:20:42 AM 43.7610 -99.9600 315° West 444 511 34,000  Level FlightAware
Fri 07:21:22 AM 43.8200 -100.0370 317° Northwest 442 509 34,000  Level FlightAware
Fri 07:21:59 AM 43.8670 -100.1020 315° West 443 510 34,000  Level FlightAware
Fri 07:22:37 AM 43.9300 -100.1840 317° Northwest 442 509 34,000  Level FlightAware
Fri 07:23:12 AM 43.9810 -100.2510 317° Northwest 442 509 34,000  Level FlightAware
Fri 07:23:52 AM 44.0310 -100.3180 316° Northwest 442 509 34,000  Level FlightAware
Fri 07:24:28 AM 44.0760 -100.3790 316° Northwest 442 509 34,000  Level FlightAware
Fri 07:25:05 AM 44.1220 -100.4410 316° Northwest 442 509 34,000  Level FlightAware
Fri 07:25:41 AM 44.1670 -100.5020 316° Northwest 442 509 34,000  Level FlightAware
Fri 07:26:20 AM 44.2160 -100.5670 316° Northwest 442 509 34,000  Level FlightAware
Fri 07:26:57 AM 44.2620 -100.6300 316° Northwest 442 509 34,000  Level FlightAware
Fri 07:27:33 AM 44.3070 -100.6900 316° Northwest 442 509 34,000  Level FlightAware
Fri 07:28:10 AM 44.3530 -100.7530 316° Northwest 442 509 34,000  Level FlightAware
Fri 07:28:44 AM 44.3960 -100.8100 317° Northwest 442 509 34,000  Level FlightAware
Fri 07:29:21 AM 44.4420 -100.8730 316° Northwest 442 509 34,000  Level FlightAware
Fri 07:29:57 AM 44.4870 -100.9340 316° Northwest 442 509 34,000  Level FlightAware
Fri 07:30:33 AM 44.5320 -100.9950 316° Northwest 442 509 34,000  Level FlightAware
Fri 07:31:09 AM 44.5770 -101.0560 316° Northwest 442 509 34,000  Level FlightAware
Fri 07:31:45 AM 44.6220 -101.1170 316° Northwest 442 509 34,000  Level FlightAware
Fri 07:32:22 AM 44.6680 -101.1800 316° Northwest 442 509 34,000  Level FlightAware
Fri 07:32:58 AM 44.7130 -101.2410 316° Northwest 442 509 34,000  Level FlightAware
Fri 07:33:38 AM 44.8850 -101.4889 316° Northwest 442 509 34,000  Level Salt Center
Fri 07:34:38 AM 44.9811 -101.6264 315° West 442 509 34,000  Level Salt Center
Fri 07:35:39 AM 45.0681 -101.7497 315° West 441 507 34,000  Level Salt Center
Fri 07:36:39 AM 45.1550 -101.8739 315° West 444 511 34,000  Level Salt Center
Fri 07:37:39 AM 45.2425 -101.9961 315° West 444 511 34,000  Level Salt Center
Fri 07:38:39 AM 45.3294 -102.1200 315° West 444 511 34,000 -50 Level Salt Center
Fri 07:39:39 AM 45.4150 -102.2442 314° West 442 509 33,900  Descending Salt Center
Fri 07:40:40 AM 45.5025 -102.3722 314° West 447 514 34,000 50 Climbing Salt Center
Fri 07:41:40 AM 45.5881 -102.4964 315° West 445 512 34,000 -50 Level Salt Center
Fri 07:42:40 AM 45.6750 -102.6189 315° West 443 510 33,900  Descending Salt Center
Fri 07:43:40 AM 45.7608 -102.7447 314° West 441 507 34,000 50 Climbing Salt Center
Fri 07:44:40 AM 45.8458 -102.8697 314° West 441 507 34,000  Level Salt Center
Fri 07:45:41 AM 45.9294 -102.9969 313° West 439 505 34,000  Level Salt Center
Fri 07:46:41 AM 46.0147 -103.1206 315° West 438 504 34,000  Level Salt Center
Fri 07:47:41 AM 46.0981 -103.2442 314° West 435 501 34,000  Level Salt Center
Fri 07:48:41 AM 46.1808 -103.3689 314° West 433 498 34,000 -50 Level Salt Center
Fri 07:49:41 AM 46.2636 -103.4964 313° West 433 498 33,900 -50 Descending Salt Center
Fri 07:50:42 AM 46.3464 -103.6206 314° West 433 498 33,900 50 Level Salt Center
Fri 07:51:42 AM 46.4278 -103.7433 314° West 430 495 34,000 50 Climbing Salt Center
Fri 07:52:42 AM 46.5092 -103.8686 313° West 426 490 34,000 -50 Level Salt Center
Fri 07:53:42 AM 46.5911 -103.9964 313° West 429 494 33,900  Descending Salt Center
Fri 07:54:42 AM 46.6725 -104.1211 314° West 429 494 34,000 50 Climbing Salt Center
Fri 07:55:43 AM 46.7533 -104.2464 313° West 426 490 34,000  Level Salt Center
Fri 07:56:43 AM 46.8350 -104.3753 313° West 428 493 34,000  Level Salt Center
Fri 07:57:43 AM 46.9161 -104.5011 313° West 428 493 34,000 -50 Level Salt Center
Fri 07:58:43 AM 46.9953 -104.6258 313° West 424 488 33,900  Descending Salt Center
Fri 07:59:43 AM 47.0733 -104.7500 313° West 420 483 34,000 50 Climbing Salt Center
Fri 08:00:44 AM 47.1531 -104.8781 312° West 420 483 34,000 -50 Level Salt Center
Fri 08:01:44 AM 47.2328 -105.0017 314° West 419 482 33,900 -50 Descending Salt Center
Fri 08:02:44 AM 47.3103 -105.1247 313° West 414 476 33,900 50 Level Salt Center
Fri 08:03:44 AM 47.3869 -105.2494 312° West 411 473 34,000 50 Climbing Salt Center
Fri 08:04:44 AM 47.4639 -105.3744 312° West 411 473 34,000  Level Salt Center
Fri 08:05:45 AM 47.5417 -105.4989 313° West 411 473 34,000  Level Salt Center
Fri 08:06:45 AM 47.6192 -105.6256 312° West 414 476 34,000  Level Salt Center
Fri 08:07:45 AM 47.6958 -105.7522 312° West 414 476 34,000  Level Salt Center
Fri 08:08:45 AM 47.7708 -105.8761 312° West 407 468 34,000 -50 Level Salt Center
Fri 08:09:46 AM 47.8458 -106.0011 312° West 405 466 33,900 -50 Descending Salt Center
Fri 08:10:46 AM 47.9192 -106.1228 312° West 399 459 33,900 50 Level Salt Center
Fri 08:11:46 AM 47.9917 -106.2469 311° West 398 458 34,000 15 Climbing Salt Center
Fri 08:17:20 AM 48.3810 -106.9890 311° West 400 460 34,000  Level FlightAware
Fri 08:17:56 AM 48.4180 -107.0730 304° West 406 467 34,000  Level FlightAware
Fri 08:18:34 AM 48.4520 -107.1510 303° West 406 467 34,000  Level FlightAware
Fri 08:19:13 AM 48.4980 -107.2530 304° West 400 460 34,000  Level FlightAware
Fri 08:20:06 AM 48.5470 -107.3670 303° West 399 459 34,000  Level FlightAware
Fri 08:20:49 AM 48.5940 -107.4730 304° West 398 458 34,000  Level FlightAware
Fri 08:21:24 AM 48.6300 -107.5550 304° West 398 458 34,000  Level FlightAware
Fri 08:22:01 AM 48.6670 -107.6410 303° West 398 458 34,000  Level FlightAware
Fri 08:22:43 AM 48.7070 -107.7330 303° West 399 459 34,000  Level FlightAware
Fri 08:23:19 AM 48.7380 -107.8040 304° West 399 459 34,000  Level FlightAware
Fri 08:23:55 AM 48.7680 -107.8760 302° West 399 459 34,000  Level FlightAware
Fri 08:24:44 AM 48.8250 -108.0110 303° West 396 456 34,000  Level FlightAware
Fri 08:25:20 AM 48.8550 -108.0830 302° West 396 456 34,000  Level FlightAware
Fri 08:25:56 AM 48.8850 -108.1560 302° West 396 456 34,000  Level FlightAware
Fri 08:26:32 AM 48.9140 -108.2280 302° West 396 456 34,000  Level FlightAware
Fri 08:27:09 AM 48.9450 -108.3020 303° West 396 456 34,000  Level FlightAware
Fri 08:27:45 AM 48.9750 -108.3750 302° West 396 456 34,000  Level FlightAware
Fri 08:28:21 AM 49.0040 -108.4470 302° West 396 456 34,000  Level FlightAware
Fri 08:28:57 AM 49.0340 -108.5200 302° West 396 456 34,000  Level FlightAware
Fri 08:29:35 AM 49.0650 -108.5960 302° West 396 456 34,000  Level FlightAware
Fri 08:30:11 AM 49.0950 -108.6690 302° West 396 456 34,000  Level FlightAware
Fri 08:30:47 AM 49.1250 -108.7410 303° West 396 456 34,000  Level FlightAware
Fri 08:31:21 AM 49.2260 -108.9610 305° West 402 463 34,000  Level FlightAware
Fri 08:31:55 AM 49.2590 -109.0430 302° West 400 460 34,000  Level FlightAware
Fri 08:32:26 AM 49.2900 -109.1170 303° West 401 461 34,000  Level FlightAware
Fri 08:33:03 AM 49.3260 -109.2040 302° West 401 461 34,000  Level FlightAware
Fri 08:33:40 AM 49.3650 -109.3000 302° West 402 463 34,000  Level FlightAware
Fri 08:34:16 AM 49.4000 -109.3850 302° West 407 468 34,000  Level FlightAware
Fri 08:34:48 AM 49.4330 -109.4660 302° West 409 471 34,000  Level FlightAware
Fri 08:35:26 AM 49.4700 -109.5570 302° West 406 467 34,000  Level FlightAware
Fri 08:35:58 AM 49.5010 -109.6360 301° West 405 466 34,000  Level FlightAware
Fri 08:36:36 AM 49.5400 -109.7320 302° West 407 468 34,000  Level FlightAware
Fri 08:37:12 AM 49.5750 -109.8180 302° West 410 472 34,000  Level FlightAware
Fri 08:37:44 AM 49.6060 -109.8970 301° West 405 466 34,000  Level FlightAware
Fri 08:38:22 AM 49.6440 -109.9930 301° West 402 463 34,000  Level FlightAware
Fri 08:38:54 AM 49.6750 -110.0710 302° West 405 466 34,000  Level FlightAware
Fri 08:39:29 AM 49.7080 -110.1560 301° West 410 472 34,000  Level FlightAware
Fri 08:40:07 AM 49.7450 -110.2480 302° West 408 470 34,000  Level FlightAware
Fri 08:40:38 AM 49.7760 -110.3280 301° West 405 466 34,000  Level FlightAware
Fri 08:41:15 AM 49.8110 -110.4170 301° West 404 465 34,000  Level FlightAware
Fri 08:41:50 AM 49.8460 -110.5060 301° West 404 465 34,000  Level FlightAware
Fri 08:42:26 AM 49.8800 -110.5950 301° West 403 464 34,000  Level FlightAware
Fri 08:42:58 AM 49.9110 -110.6740 301° West 404 465 34,000  Level FlightAware
Fri 08:43:35 AM 49.9460 -110.7660 301° West 404 465 34,000  Level FlightAware
Fri 08:44:11 AM 49.9790 -110.8510 301° West 403 464 34,000  Level FlightAware
Fri 08:44:42 AM 50.0110 -110.9300 302° West 403 464 34,000  Level FlightAware
Fri 08:45:20 AM 50.0490 -111.0260 302° West 402 463 34,000  Level FlightAware
Fri 08:45:52 AM 50.0790 -111.1020 302° West 403 464 34,000  Level FlightAware
Fri 08:46:31 AM 50.1170 -111.1990 301° West 402 463 34,000  Level FlightAware
Fri 08:47:02 AM 50.1470 -111.2750 302° West 403 464 34,000  Level FlightAware
Fri 08:47:38 AM 50.1790 -111.3600 300° West 404 465 34,000  Level FlightAware
Fri 08:48:12 AM 50.2140 -111.4470 302° West 405 466 34,000  Level FlightAware
Fri 08:48:51 AM 50.2530 -111.5470 301° West 405 466 34,000  Level FlightAware
Fri 08:49:22 AM 50.2820 -111.6230 301° West 406 467 34,000  Level FlightAware
Fri 08:50:01 AM 50.3200 -111.7230 301° West 406 467 34,000  Level FlightAware
Fri 08:50:32 AM 50.3500 -111.7990 302° West 407 468 34,000  Level FlightAware
Fri 08:51:06 AM 50.3830 -111.8880 300° West 408 470 34,000  Level FlightAware
Fri 08:51:41 AM 50.4170 -111.9770 301° West 409 471 34,000  Level FlightAware
Fri 08:52:21 AM 50.4560 -112.0790 301° West 410 472 34,000  Level FlightAware
Fri 08:52:51 AM 50.4850 -112.1560 301° West 411 473 34,000  Level FlightAware
Fri 08:53:31 AM 50.5230 -112.2580 300° West 411 473 34,000  Level FlightAware
Fri 08:54:02 AM 50.5530 -112.3350 302° West 412 474 34,000  Level FlightAware
Fri 08:54:41 AM 50.5910 -112.4390 300° West 413 475 34,000  Level FlightAware
Fri 08:55:12 AM 50.6210 -112.5170 301° West 414 476 34,000  Level FlightAware
Fri 08:55:46 AM 50.6540 -112.6080 300° West 413 475 34,000  Level FlightAware
Fri 08:56:26 AM 50.6930 -112.7140 300° West 412 474 34,000  Level FlightAware
Fri 08:56:57 AM 50.7220 -112.7920 300° West 407 468 34,000  Level FlightAware
Fri 08:57:32 AM 50.7560 -112.8830 301° West 407 468 34,000  Level FlightAware
Fri 08:58:10 AM 50.7900 -112.9760 300° West 408 470 34,000  Level FlightAware
Fri 08:58:43 AM 50.8240 -113.0670 301° West 409 471 34,000  Level FlightAware
Fri 08:59:19 AM 50.8580 -113.1620 300° West 415 478 34,000  Level FlightAware
Fri 08:59:54 AM 50.8920 -113.2540 300° West 416 479 34,000  Level FlightAware
Fri 09:00:30 AM 50.9260 -113.3490 300° West 412 474 34,000  Level FlightAware
Fri 09:01:05 AM 50.9590 -113.4420 299° West 412 474 34,000  Level FlightAware
Fri 09:01:35 AM 50.9870 -113.5210 299° West 411 473 34,000  Level FlightAware
Fri 09:02:13 AM 51.0230 -113.6110 302° West 406 467 34,000  Level FlightAware
Fri 09:02:50 AM 51.0710 -113.7040 309° West 403 464 34,000  Level FlightAware
Fri 09:03:25 AM 51.1200 -113.7740 318° Northwest 406 467 34,000  Level FlightAware
Fri 09:04:00 AM 51.1740 -113.8330 326° Northwest 398 458 34,000  Level FlightAware
Fri 09:04:40 AM 51.2410 -113.8850 334° Northwest 396 456 34,000  Level FlightAware
Fri 09:05:15 AM 51.3030 -113.9180 342° North 396 456 34,000  Level FlightAware
Fri 09:05:50 AM 51.3660 -113.9370 349° North 404 465 34,000  Level FlightAware
Fri 09:06:25 AM 51.4330 -113.9460 355° North 404 465 34,000  Level FlightAware
Fri 09:07:00 AM 51.4990 -113.9540 356° North 403 464 34,000  Level FlightAware
Fri 09:07:35 AM 51.5630 -113.9650 354° North 402 463 34,000  Level FlightAware
Fri 09:08:16 AM 51.6380 -113.9790 353° North 401 461 34,000  Level FlightAware
Fri 09:08:55 AM 51.7100 -113.9920 354° North 392 451 34,000  Level FlightAware
Fri 09:09:30 AM 51.7750 -114.0050 353° North 392 451 34,000 -462 Level FlightAware
Fri 09:10:00 AM 51.8290 -114.0150 353° North 387 445 33,500 -2,123 Descending FlightAware
Fri 09:10:35 AM 51.8940 -114.0270 354° North 385 443 31,700 -2,880 Descending FlightAware
Fri 09:11:15 AM 51.9640 -114.0400 353° North 387 445 29,900 -2,640 Descending FlightAware
Fri 09:11:50 AM 52.0270 -114.0530 353° North 369 425 28,400 -2,400 Descending FlightAware
Fri 09:12:20 AM 52.0770 -114.0620 354° North 369 425 27,300 -2,308 Descending FlightAware
Fri 09:12:55 AM 52.1360 -114.0740 353° North 359 413 25,900 -2,240 Descending FlightAware
Fri 09:13:35 AM 52.2010 -114.0860 354° North 340 391 24,500 -2,057 Descending FlightAware
Fri 09:14:05 AM 52.2490 -114.0940 354° North 338 389 23,500 -1,909 Descending FlightAware
Fri 09:14:41 AM 52.3020 -114.1040 353° North 343 395 22,400 -1,971 Descending FlightAware
Fri 09:15:15 AM 52.3580 -114.1150 353° North 339 390 21,200 -2,027 Descending FlightAware
Fri 09:15:55 AM 52.4230 -114.1270 354° North 339 390 19,900 -1,971 Descending FlightAware
Fri 09:16:25 AM 52.4710 -114.1350 354° North 343 395 18,900 -2,063 Descending FlightAware
Fri 09:16:59 AM 52.5250 -114.1430 355° North 336 387 17,700 -1,855 Descending FlightAware
Fri 09:17:20 AM 52.5510 -114.1420 North 338 389 17,200 -1,600 Descending FlightAware
Fri 09:17:44 AM 52.5850 -114.1320 10° North 334 384 16,500 -1,900 Descending FlightAware
Fri 09:18:20 AM 52.6450 -114.1060 15° North 337 388 15,300 -1,974 Descending FlightAware
Fri 09:19:00 AM 52.7080 -114.0780 15° North 324 373 14,000 -2,160 Descending FlightAware
Fri 09:19:35 AM 52.7600 -114.0540 16° North 322 371 12,600 -2,280 Descending FlightAware
Fri 09:19:50 AM 52.7800 -114.0420 20° North 326 375 12,100 -2,000 Descending FlightAware
Fri 09:20:05 AM 52.7960 -114.0170 43° Northeast 331 381 11,600 -1,320 Descending FlightAware
Fri 09:20:40 AM 52.8300 -113.9550 48° Northeast 307 353 11,000 -857 Descending FlightAware
Fri 09:21:15 AM 52.8600 -113.8970 49° Northeast 285 328 10,600 -968 Descending FlightAware
Fri 09:21:42 AM 52.8820 -113.8550 49° Northeast 275 316 10,000 -1,529 Descending FlightAware
Fri 09:22:06 AM 52.9010 -113.8190 49° Northeast 277 319 9,300 -1,698 Descending FlightAware
Fri 09:22:35 AM 52.9280 -113.7680 49° Northeast 276 318 8,500 -1,565 Descending FlightAware
Fri 09:23:15 AM 52.9610 -113.7070 48° Northeast 274 315 7,500 -1,500 Descending FlightAware
Fri 09:23:35 AM 52.9790 -113.6730 49° Northeast 274 315 7,000 -1,560 Descending FlightAware
Fri 09:24:05 AM 53.0050 -113.6280 46° Northeast 266 306 6,200 -930 Descending FlightAware
Fri 09:24:46 AM 53.0250 -113.5910 48° Northeast 259 298 5,900 -305 Descending FlightAware
Fri 09:25:04 AM 53.0410 -113.5600 49° Northeast 241 277 5,900  Level FlightAware
Fri 09:25:30 AM 53.0580 -113.5300 47° Northeast 241 277 5,900 -130 Level FlightAware
Fri 09:25:50 AM 53.0840 -113.4830 47° Northeast 231 266 5,800 -514 Descending FlightAware
Fri 09:26:05 AM 53.0950 -113.4620 49° Northeast 223 257 5,600 -750 Descending FlightAware
Fri 09:26:30 AM 53.1110 -113.4320 48° Northeast 208 239 5,300 -1,067 Descending FlightAware
Fri 09:26:50 AM 53.1240 -113.4090 47° Northeast 205 236 4,800 -1,371 Descending FlightAware
Fri 09:27:05 AM 53.1340 -113.3920 46° Northeast 198 228 4,500 -1,200 Descending FlightAware
Fri 09:27:10 AM 53.1380 -113.3890 24° Northeast 194 223 4,400 -1,200 Descending FlightAware
Fri 09:27:20 AM 53.1460 -113.3860 13° North 187 215 4,200 -600 Descending FlightAware
Fri 09:27:40 AM 53.1630 -113.3900 352° North 186 214 4,100 -343 Descending FlightAware
Fri 09:27:55 AM 53.1760 -113.3930 352° North 186 214 4,000 -240 Descending FlightAware
Fri 09:28:05 AM 53.1840 -113.3960 347° North 185 213 4,000  Level FlightAware
Fri 09:28:16 AM 53.1910 -113.4030 329° Northwest 181 208 4,000  Level FlightAware
Fri 09:28:35 AM 53.2020 -113.4230 313° West 174 200 4,000  Level FlightAware
Fri 09:28:55 AM 53.2130 -113.4400 317° Northwest 160 184 4,000  Level FlightAware
Fri 09:29:20 AM 53.2260 -113.4620 315° West 156 180 4,000 -267 Level FlightAware
Fri 09:29:40 AM 53.2360 -113.4780 316° Northwest 138 159 3,800 -514 Descending FlightAware
Fri 09:29:55 AM 53.2410 -113.4860 316° Northwest 127 146 3,700 -439 Descending FlightAware
Fri 09:30:21 AM 53.2470 -113.4960 315° West 124 143 3,500 -231 Descending FlightAware
Fri 09:30:47 AM 53.2560 -113.5110 315° West 124 143 3,500 -955 Level FlightAware
Fri 09:31:05 AM 53.2700 -113.5360 313° West 116 133 2,800 -1,421 Descending FlightAware
Fri 09:31:25 AM 53.2770 -113.5480 314° West 118 136 2,600 -207 Descending FlightAware
Fri 09:32:03 AM 53.2900 -113.5690 316° Northwest 125 144 2,600  Level FlightAware

Login

Don't have an account? Register now (free) for customized features, flight alerts, and more!